createdAt,value
2022-09-20T00:01:40.598Z,15.40
2022-09-20T00:04:10.290Z,15.40
2022-09-20T00:06:38.207Z,15.30
2022-09-20T00:09:06.665Z,15.30
2022-09-20T00:11:35.958Z,15.20
2022-09-20T00:14:08.528Z,15.10
2022-09-20T00:16:39.916Z,15.10
2022-09-20T00:19:09.109Z,15.00
2022-09-20T00:21:38.126Z,15.00
2022-09-20T00:24:06.333Z,14.90
2022-09-20T00:26:34.528Z,14.90
2022-09-20T00:29:04.261Z,14.80
2022-09-20T00:31:32.671Z,14.70
2022-09-20T00:34:19.874Z,14.70
2022-09-20T00:36:48.691Z,14.80
2022-09-20T00:39:18.284Z,14.60
2022-09-20T00:41:46.415Z,14.60
2022-09-20T00:44:43.365Z,14.50
2022-09-20T00:47:28.200Z,14.50
2022-09-20T00:50:20.639Z,14.50
2022-09-20T00:52:54.444Z,14.40
2022-09-20T00:55:23.770Z,14.40
2022-09-20T00:57:51.876Z,14.40
2022-09-20T01:00:20.036Z,14.30
2022-09-20T01:02:59.126Z,14.30
2022-09-20T01:05:28.215Z,14.30
2022-09-20T01:07:57.493Z,14.20
2022-09-20T01:10:26.108Z,14.20
2022-09-20T01:12:55.053Z,14.20
2022-09-20T01:15:27.589Z,14.20
2022-09-20T01:17:59.237Z,14.10
2022-09-20T01:20:32.143Z,14.10
2022-09-20T01:23:24.180Z,14.10
2022-09-20T01:26:20.023Z,14.10
2022-09-20T01:28:50.161Z,14.00
2022-09-20T01:31:34.703Z,14.00
2022-09-20T01:34:10.062Z,14.00
2022-09-20T01:36:52.099Z,14.00
2022-09-20T01:39:41.701Z,14.00
2022-09-20T01:42:15.072Z,14.00
2022-09-20T01:44:49.060Z,13.90
2022-09-20T01:47:35.591Z,13.90
2022-09-20T01:50:32.224Z,13.90
2022-09-20T01:53:25.690Z,13.80
2022-09-20T01:56:28.621Z,13.80
2022-09-20T01:59:24.494Z,13.70
2022-09-20T02:02:30.499Z,13.70
2022-09-20T02:05:30.688Z,13.60
2022-09-20T02:08:37.917Z,13.60
2022-09-20T02:11:38.306Z,13.60
2022-09-20T02:14:26.720Z,13.60
2022-09-20T02:17:24.257Z,13.50
2022-09-20T02:19:57.992Z,13.50
2022-09-20T02:22:56.392Z,13.50
2022-09-20T02:25:53.720Z,13.50
2022-09-20T02:28:55.889Z,13.50
2022-09-20T02:32:04.350Z,13.50
2022-09-20T02:35:02.394Z,13.50
2022-09-20T02:37:52.547Z,13.50
2022-09-20T02:40:26.954Z,13.60
2022-09-20T02:43:22.785Z,13.60
2022-09-20T02:46:04.971Z,13.60
2022-09-20T02:49:03.613Z,13.60
2022-09-20T02:51:50.232Z,13.60
2022-09-20T02:54:48.905Z,13.60
2022-09-20T02:57:35.938Z,13.60
2022-09-20T03:00:13.636Z,13.60
2022-09-20T03:02:59.910Z,13.60
2022-09-20T03:05:42.293Z,13.60
2022-09-20T03:08:49.484Z,13.60
2022-09-20T03:11:29.703Z,13.60
2022-09-20T03:14:10.769Z,13.60
2022-09-20T03:17:16.491Z,13.60
2022-09-20T03:20:15.565Z,13.50
2022-09-20T03:23:01.270Z,13.50
2022-09-20T03:25:54.550Z,13.60
2022-09-20T03:28:37.323Z,13.50
2022-09-20T03:31:14.502Z,13.50
2022-09-20T03:34:24.758Z,13.50
2022-09-20T03:37:20.781Z,13.60
2022-09-20T03:40:49.338Z,13.60
2022-09-20T03:43:26.297Z,13.60
2022-09-20T03:46:05.607Z,13.50
2022-09-20T03:48:56.086Z,13.60
2022-09-20T03:51:31.718Z,13.50
2022-09-20T03:54:27.553Z,13.50
2022-09-20T03:57:23.582Z,13.50
2022-09-20T04:00:21.144Z,13.50
2022-09-20T04:03:29.090Z,13.40
2022-09-20T04:06:17.958Z,13.50
2022-09-20T04:09:07.533Z,13.50
2022-09-20T04:11:50.934Z,13.40
2022-09-20T04:14:38.162Z,13.40
2022-09-20T04:17:26.241Z,13.30
2022-09-20T04:20:05.867Z,13.20
2022-09-20T04:22:34.726Z,13.10
2022-09-20T04:25:23.341Z,13.10
2022-09-20T04:27:58.839Z,13.00
2022-09-20T04:30:30.251Z,12.90
2022-09-20T04:33:13.510Z,12.90
2022-09-20T04:36:03.009Z,12.80
2022-09-20T04:38:33.886Z,12.70
2022-09-20T04:41:16.644Z,12.70
2022-09-20T04:44:11.542Z,12.70
2022-09-20T04:47:18.514Z,12.60
2022-09-20T04:50:12.595Z,12.60
2022-09-20T04:53:16.526Z,12.50
2022-09-20T04:56:16.587Z,12.50
2022-09-20T04:59:06.018Z,12.40
2022-09-20T05:02:12.974Z,12.40
2022-09-20T05:05:19.180Z,12.30
2022-09-20T05:07:56.913Z,12.30
2022-09-20T05:11:11.997Z,12.30
2022-09-20T05:14:22.880Z,12.20
2022-09-20T05:17:12.283Z,12.20
2022-09-20T05:20:07.286Z,12.10
2022-09-20T05:22:54.976Z,12.10
2022-09-20T05:25:36.274Z,12.10
2022-09-20T05:28:07.096Z,12.10
2022-09-20T05:30:47.112Z,12.10
2022-09-20T05:33:27.333Z,12.00
2022-09-20T05:36:04.337Z,12.00
2022-09-20T05:38:41.871Z,11.90
2022-09-20T05:41:35.571Z,11.90
2022-09-20T05:44:21.087Z,11.90
2022-09-20T05:47:14.151Z,11.80
2022-09-20T05:50:06.489Z,11.90
2022-09-20T05:52:58.547Z,11.80
2022-09-20T05:55:47.074Z,11.80
2022-09-20T05:58:22.003Z,11.80
2022-09-20T06:01:15.084Z,11.80
2022-09-20T06:04:22.639Z,11.70
2022-09-20T06:07:13.865Z,11.70
2022-09-20T06:10:15.302Z,11.70
2022-09-20T06:13:22.054Z,11.70
2022-09-20T06:15:57.454Z,11.70
2022-09-20T06:18:45.592Z,11.70
2022-09-20T06:21:42.809Z,11.70
2022-09-20T06:24:33.841Z,11.70
2022-09-20T06:27:08.873Z,11.60
2022-09-20T06:29:41.940Z,11.60
2022-09-20T06:32:10.288Z,11.60
2022-09-20T06:34:38.150Z,11.60
2022-09-20T06:37:40.184Z,11.70
2022-09-20T06:40:55.878Z,11.70
2022-09-20T06:43:24.933Z,11.80
2022-09-20T06:45:53.869Z,11.80
2022-09-20T06:48:22.140Z,11.80
2022-09-20T06:50:52.291Z,11.90
2022-09-20T06:53:33.101Z,11.90
2022-09-20T06:56:01.993Z,11.90
2022-09-20T06:58:30.449Z,11.90
2022-09-20T07:00:58.364Z,12.00
2022-09-20T07:03:26.938Z,12.00
2022-09-20T07:05:55.224Z,12.10
2022-09-20T07:08:23.072Z,12.10
2022-09-20T07:10:51.563Z,12.20
2022-09-20T07:13:20.948Z,12.20
2022-09-20T07:15:49.223Z,12.30
2022-09-20T07:18:17.761Z,12.30
2022-09-20T07:20:47.146Z,12.40
2022-09-20T07:23:15.700Z,12.50
2022-09-20T07:25:44.123Z,12.60
2022-09-20T07:28:12.708Z,12.70
2022-09-20T07:30:40.892Z,12.70
2022-09-20T07:33:12.125Z,12.90
2022-09-20T07:35:41.727Z,13.20
2022-09-20T07:38:10.429Z,13.70
2022-09-20T07:40:38.641Z,14.30
2022-09-20T07:43:06.925Z,14.70
2022-09-20T07:45:39.797Z,15.20
2022-09-20T07:48:09.636Z,15.60
2022-09-20T07:50:37.550Z,16.10
2022-09-20T07:53:05.371Z,16.50
2022-09-20T07:55:34.798Z,16.90
2022-09-20T07:58:02.761Z,17.30
2022-09-20T08:00:31.578Z,17.70
2022-09-20T08:03:00.561Z,18.00
2022-09-20T08:05:28.977Z,18.30
2022-09-20T08:08:00.291Z,18.40
2022-09-20T08:10:28.495Z,18.60
2022-09-20T08:15:45.576Z,18.80
2022-09-20T08:18:14.846Z,18.90
2022-09-20T08:20:43.002Z,19.00
2022-09-20T08:23:23.462Z,19.10
2022-09-20T08:25:51.979Z,19.30
2022-09-20T08:28:20.864Z,19.50
2022-09-20T08:30:51.555Z,19.50
2022-09-20T08:33:20.121Z,19.50
2022-09-20T08:44:12.773Z,19.50
2022-09-20T08:46:56.478Z,19.40
2022-09-20T08:49:27.623Z,19.40
2022-09-20T08:51:59.783Z,19.40
2022-09-20T08:54:32.476Z,19.40
2022-09-20T08:57:11.101Z,19.40
2022-09-20T08:59:40.915Z,19.50
2022-09-20T09:02:24.068Z,19.50
2022-09-20T09:04:53.908Z,19.60
2022-09-20T09:07:23.829Z,19.70
2022-09-20T09:09:54.510Z,19.80
2022-09-20T09:12:26.046Z,20.00
2022-09-20T09:14:59.725Z,20.10
2022-09-20T09:17:30.463Z,20.10
2022-09-20T09:19:58.868Z,20.00
2022-09-20T09:22:49.117Z,19.90
2022-09-20T09:25:34.457Z,20.00
2022-09-20T09:28:13.381Z,19.90
2022-09-20T09:30:48.001Z,19.90
2022-09-20T09:33:34.997Z,19.90
2022-09-20T09:36:08.673Z,19.70
2022-09-20T09:38:39.358Z,19.60
2022-09-20T09:41:24.589Z,19.70
2022-09-20T09:44:10.498Z,19.80
2022-09-20T09:46:40.296Z,19.80
2022-09-20T09:49:12.877Z,19.80
2022-09-20T09:52:02.212Z,19.90
2022-09-20T09:54:39.196Z,19.90
2022-09-20T09:57:48.843Z,19.90
2022-09-20T10:00:23.675Z,19.80
2022-09-20T10:03:13.646Z,19.80
2022-09-20T10:06:10.355Z,19.80
2022-09-20T10:09:13.407Z,19.70
2022-09-20T10:12:26.556Z,19.60
2022-09-20T10:15:14.544Z,19.60
2022-09-20T10:17:52.495Z,19.60
2022-09-20T10:20:31.317Z,19.70
2022-09-20T10:23:34.359Z,19.70
2022-09-20T10:26:08.103Z,19.90
2022-09-20T10:29:18.280Z,19.90
2022-09-20T10:32:15.912Z,19.80
2022-09-20T10:35:08.390Z,19.90
2022-09-20T10:37:58.359Z,19.80
2022-09-20T10:41:09.114Z,19.80
2022-09-20T10:43:50.344Z,19.80
2022-09-20T10:46:42.847Z,19.80
2022-09-20T10:49:29.084Z,19.90
2022-09-20T10:55:04.634Z,19.90
2022-09-20T10:58:24.829Z,20.00
2022-09-20T11:01:19.451Z,20.00
2022-09-20T11:04:10.536Z,19.80
2022-09-20T11:07:03.116Z,19.60
2022-09-20T11:09:41.522Z,19.50
2022-09-20T11:12:31.333Z,19.60
2022-09-20T11:15:05.925Z,19.80
2022-09-20T11:17:49.164Z,20.00
2022-09-20T11:20:40.131Z,20.10
2022-09-20T11:23:27.154Z,20.30
2022-09-20T11:26:13.447Z,20.40
2022-09-20T11:28:46.368Z,20.50
2022-09-20T11:31:15.297Z,20.60
2022-09-20T11:33:53.005Z,20.70
2022-09-20T11:36:39.597Z,20.70
2022-09-20T11:39:17.872Z,20.80
2022-09-20T11:41:47.653Z,20.80
2022-09-20T11:44:18.589Z,20.90
2022-09-20T11:46:54.797Z,21.00
2022-09-20T11:49:56.536Z,21.00
2022-09-20T11:53:15.525Z,21.00
2022-09-20T11:55:52.275Z,20.80
2022-09-20T11:58:22.546Z,20.70
2022-09-20T12:00:55.206Z,20.70
2022-09-20T12:04:00.119Z,20.70
2022-09-20T12:06:40.680Z,20.80
2022-09-20T12:09:42.477Z,20.80
2022-09-20T12:12:47.266Z,20.90
2022-09-20T12:15:21.796Z,21.00
2022-09-20T12:17:50.431Z,21.00
2022-09-20T12:21:06.946Z,21.00
2022-09-20T12:24:17.541Z,21.10
2022-09-20T12:27:09.462Z,21.10
2022-09-20T12:29:55.135Z,21.10
2022-09-20T12:32:32.732Z,21.10
2022-09-20T12:35:34.911Z,21.10
2022-09-20T12:38:22.169Z,21.10
2022-09-20T12:41:13.518Z,21.20
2022-09-20T12:43:58.964Z,21.20
2022-09-20T12:48:46.706Z,21.30
2022-09-20T12:51:34.016Z,21.30
2022-09-20T12:54:14.056Z,21.20
2022-09-20T12:56:44.504Z,21.10
2022-09-20T12:59:24.581Z,21.00
2022-09-20T13:01:53.198Z,20.90
2022-09-20T13:04:53.152Z,20.90
2022-09-20T13:07:43.945Z,21.00
2022-09-20T13:10:39.003Z,21.10
2022-09-20T13:13:16.844Z,21.30
2022-09-20T13:15:50.550Z,21.50
2022-09-20T13:18:19.609Z,21.50
2022-09-20T13:20:47.983Z,21.50
2022-09-20T13:23:52.052Z,21.40
2022-09-20T13:26:27.586Z,21.50
2022-09-20T13:28:59.273Z,21.50
2022-09-20T13:31:30.851Z,21.50
2022-09-20T13:34:24.460Z,21.50
2022-09-20T13:36:58.354Z,21.70
2022-09-20T13:39:37.351Z,21.80
2022-09-20T13:42:12.250Z,21.90
2022-09-20T13:44:42.571Z,21.90
2022-09-20T13:47:27.134Z,22.00
2022-09-20T13:50:14.206Z,22.00
2022-09-20T13:52:48.397Z,22.00
2022-09-20T13:55:32.022Z,22.00
2022-09-20T13:58:04.490Z,21.90
2022-09-20T14:00:34.892Z,21.80
2022-09-20T14:03:04.648Z,21.80
2022-09-20T14:05:33.540Z,21.80
2022-09-20T14:08:01.885Z,21.80
2022-09-20T14:10:43.034Z,21.70
2022-09-20T14:13:16.718Z,21.60
2022-09-20T14:15:47.511Z,21.50
2022-09-20T14:18:18.835Z,21.40
2022-09-20T14:20:47.787Z,21.40
2022-09-20T14:23:48.889Z,21.40
2022-09-20T14:26:17.333Z,21.40
2022-09-20T14:28:46.899Z,21.40
2022-09-20T14:31:32.573Z,21.30
2022-09-20T14:34:03.452Z,21.20
2022-09-20T14:36:31.822Z,20.90
2022-09-20T14:39:05.083Z,20.80
2022-09-20T14:41:38.987Z,20.70
2022-09-20T14:44:23.747Z,20.70
2022-09-20T14:46:51.861Z,20.70
2022-09-20T14:49:26.294Z,20.70
2022-09-20T14:52:26.888Z,20.70
2022-09-20T14:55:11.063Z,20.70
2022-09-20T14:57:39.927Z,20.70
2022-09-20T15:00:16.606Z,20.70
2022-09-20T15:02:46.535Z,20.70
2022-09-20T15:05:26.173Z,20.70
2022-09-20T15:07:56.809Z,20.60
2022-09-20T15:10:27.934Z,20.60
2022-09-20T15:12:56.903Z,20.60
2022-09-20T15:15:24.804Z,20.60
2022-09-20T15:17:53.420Z,20.60
2022-09-20T15:20:24.461Z,20.50
2022-09-20T15:22:52.707Z,20.50
2022-09-20T15:25:21.614Z,20.50
2022-09-20T15:27:51.877Z,20.40
2022-09-20T15:30:21.109Z,20.40
2022-09-20T15:32:49.722Z,20.30
2022-09-20T15:35:17.819Z,20.30
2022-09-20T15:37:46.130Z,20.20
2022-09-20T15:40:15.460Z,20.30
2022-09-20T15:42:44.253Z,20.30
2022-09-20T15:45:12.437Z,20.20
2022-09-20T15:47:42.504Z,20.20
2022-09-20T15:50:11.211Z,20.20
2022-09-20T15:52:41.204Z,20.20
2022-09-20T15:55:09.671Z,20.10
2022-09-20T15:57:39.612Z,20.00
2022-09-20T16:00:09.798Z,20.00
2022-09-20T16:02:38.749Z,19.90
2022-09-20T16:05:10.086Z,19.80
2022-09-20T16:07:38.342Z,19.80
2022-09-20T16:10:07.534Z,19.70
2022-09-20T16:12:35.771Z,19.70
2022-09-20T16:15:03.887Z,19.60
2022-09-20T16:17:53.669Z,19.50
2022-09-20T16:20:23.350Z,19.50
2022-09-20T16:22:51.160Z,19.40
2022-09-20T16:25:18.972Z,19.40
2022-09-20T16:27:48.594Z,19.40
2022-09-20T16:30:17.560Z,19.30
2022-09-20T16:32:46.386Z,19.30
2022-09-20T16:35:16.815Z,19.30
2022-09-20T16:37:46.037Z,19.30
2022-09-20T16:40:15.300Z,19.20
2022-09-20T16:42:52.104Z,19.20
2022-09-20T16:45:21.431Z,19.20
2022-09-20T16:47:50.258Z,19.20
2022-09-20T16:50:18.648Z,19.20
2022-09-20T16:52:47.253Z,19.10
2022-09-20T16:55:19.741Z,19.10
2022-09-20T16:57:51.748Z,19.10
2022-09-20T17:00:21.996Z,19.10
2022-09-20T17:02:50.678Z,19.10
2022-09-20T17:05:22.342Z,19.00
2022-09-20T17:07:50.990Z,19.00
2022-09-20T17:10:20.117Z,19.00
2022-09-20T17:12:52.462Z,19.00
2022-09-20T17:15:20.373Z,19.00
2022-09-20T17:17:49.285Z,18.90
2022-09-20T17:20:18.088Z,18.90
2022-09-20T17:22:46.480Z,18.90
2022-09-20T17:25:14.531Z,18.80
2022-09-20T17:27:42.390Z,18.90
2022-09-20T17:30:10.946Z,18.90
2022-09-20T17:32:38.986Z,18.90
2022-09-20T17:35:07.752Z,18.90
2022-09-20T17:37:36.095Z,18.90
2022-09-20T17:40:05.397Z,18.90
2022-09-20T17:42:34.697Z,18.90
2022-09-20T17:45:05.632Z,18.80
2022-09-20T17:47:33.642Z,18.80
2022-09-20T17:50:01.522Z,18.70
2022-09-20T17:52:30.002Z,18.80
2022-09-20T17:54:58.621Z,18.70
2022-09-20T17:57:26.814Z,18.70
2022-09-20T17:59:55.554Z,18.60
2022-09-20T18:02:23.884Z,18.60
2022-09-20T18:04:52.771Z,18.60
2022-09-20T18:07:21.683Z,18.50
2022-09-20T18:09:49.832Z,18.40
2022-09-20T18:12:20.821Z,18.40
2022-09-20T18:14:50.385Z,18.40
2022-09-20T18:17:18.401Z,18.30
2022-09-20T18:19:47.499Z,18.30
2022-09-20T18:22:17.919Z,18.20
2022-09-20T18:24:46.383Z,18.20
2022-09-20T18:27:15.107Z,18.10
2022-09-20T18:29:43.901Z,18.10
2022-09-20T18:32:12.771Z,18.00
2022-09-20T18:34:41.092Z,18.00
2022-09-20T18:37:13.932Z,17.90
2022-09-20T18:39:43.678Z,17.90
2022-09-20T18:42:12.139Z,17.80
2022-09-20T18:44:43.773Z,17.80
2022-09-20T18:47:13.157Z,17.70
2022-09-20T18:49:41.011Z,17.70
2022-09-20T18:52:10.829Z,17.60
2022-09-20T18:54:42.322Z,17.60
2022-09-20T18:57:10.914Z,17.60
2022-09-20T18:59:46.651Z,17.60
2022-09-20T19:02:33.351Z,17.50
2022-09-20T19:05:11.988Z,17.60
2022-09-20T19:08:03.429Z,17.60
2022-09-20T19:10:38.045Z,17.50
2022-09-20T19:13:29.738Z,17.50
2022-09-20T19:16:19.149Z,17.40
2022-09-20T19:19:33.905Z,17.50
2022-09-20T19:22:02.891Z,17.40
2022-09-20T19:24:43.075Z,17.40
2022-09-20T19:27:12.809Z,17.40
2022-09-20T19:29:41.552Z,17.40
2022-09-20T19:32:17.365Z,17.40
2022-09-20T19:34:46.846Z,17.40
2022-09-20T19:37:26.079Z,17.40
2022-09-20T19:40:20.665Z,17.40
2022-09-20T19:43:03.864Z,17.40
2022-09-20T19:46:11.698Z,17.40
2022-09-20T19:48:45.286Z,17.40
2022-09-20T19:51:14.070Z,17.30
2022-09-20T19:53:42.473Z,17.30
2022-09-20T19:56:16.855Z,17.30
2022-09-20T19:58:46.683Z,17.30
2022-09-20T20:01:14.833Z,17.30
2022-09-20T20:03:46.614Z,17.30
2022-09-20T20:06:30.065Z,17.20
2022-09-20T20:09:00.989Z,17.20
2022-09-20T20:12:00.312Z,17.20
2022-09-20T20:14:50.787Z,17.10
2022-09-20T20:17:25.210Z,17.10
2022-09-20T20:20:11.835Z,17.10
2022-09-20T20:23:04.599Z,17.00
2022-09-20T20:26:00.181Z,17.00
2022-09-20T20:28:29.773Z,16.90
2022-09-20T20:31:00.009Z,16.90
2022-09-20T20:33:30.113Z,16.90
2022-09-20T20:36:01.681Z,16.90
2022-09-20T20:38:37.669Z,16.90
2022-09-20T20:41:08.263Z,16.90
2022-09-20T20:43:42.138Z,16.90
2022-09-20T20:46:14.362Z,16.80
2022-09-20T20:48:42.648Z,16.80
2022-09-20T20:51:13.514Z,16.80
2022-09-20T20:53:50.364Z,16.80
2022-09-20T20:56:20.399Z,16.80
2022-09-20T20:58:49.911Z,16.80
2022-09-20T21:01:24.200Z,16.70
2022-09-20T21:03:54.503Z,16.70
2022-09-20T21:06:25.099Z,16.70
2022-09-20T21:08:53.315Z,16.60
2022-09-20T21:11:27.851Z,16.60
2022-09-20T21:13:57.849Z,16.50
2022-09-20T21:16:31.154Z,16.50
2022-09-20T21:18:59.544Z,16.40
2022-09-20T21:21:38.826Z,16.40
2022-09-20T21:24:09.191Z,16.40
2022-09-20T21:26:38.507Z,16.30
2022-09-20T21:29:11.446Z,16.30
2022-09-20T21:31:41.489Z,16.20
2022-09-20T21:34:12.268Z,16.20
2022-09-20T21:36:44.844Z,16.20
2022-09-20T21:39:13.856Z,16.20
2022-09-20T21:41:42.287Z,16.10
2022-09-20T21:44:10.774Z,16.10
2022-09-20T21:46:42.541Z,16.00
2022-09-20T21:49:12.927Z,16.00
2022-09-20T21:51:42.840Z,15.90
2022-09-20T21:54:11.454Z,15.90
2022-09-20T21:56:41.276Z,15.90
2022-09-20T21:59:09.578Z,15.80
2022-09-20T22:01:39.326Z,15.80
2022-09-20T22:04:09.959Z,15.80
2022-09-20T22:06:43.721Z,15.80
2022-09-20T22:09:14.721Z,15.70
2022-09-20T22:11:48.602Z,15.70
2022-09-20T22:14:19.772Z,15.70
2022-09-20T22:16:48.940Z,15.70
2022-09-20T22:19:19.328Z,15.70
2022-09-20T22:21:49.962Z,15.70
2022-09-20T22:24:18.482Z,15.60
2022-09-20T22:26:49.778Z,15.60
2022-09-20T22:29:19.138Z,15.60
2022-09-20T22:31:50.036Z,15.60
2022-09-20T22:34:20.911Z,15.60
2022-09-20T22:36:52.156Z,15.60
2022-09-20T22:39:20.028Z,15.60
2022-09-20T22:41:50.621Z,15.60
2022-09-20T22:44:21.431Z,15.70
2022-09-20T22:46:52.045Z,15.60
2022-09-20T22:49:20.097Z,15.60
2022-09-20T22:51:48.433Z,15.60
2022-09-20T22:54:16.763Z,15.60
2022-09-20T22:56:44.905Z,15.60
2022-09-20T22:59:14.561Z,15.60
2022-09-20T23:01:45.050Z,15.60
2022-09-20T23:04:18.703Z,15.60
2022-09-20T23:06:51.933Z,15.60
2022-09-20T23:09:20.618Z,15.60
2022-09-20T23:11:49.534Z,15.60
2022-09-20T23:14:19.873Z,15.60
2022-09-20T23:16:48.941Z,15.60
2022-09-20T23:19:17.332Z,15.60
2022-09-20T23:21:45.864Z,15.60
2022-09-20T23:24:16.721Z,15.50
2022-09-20T23:26:44.935Z,15.50
2022-09-20T23:29:15.352Z,15.50
2022-09-20T23:31:46.655Z,15.50
2022-09-20T23:34:15.634Z,15.50
2022-09-20T23:36:44.746Z,15.50
2022-09-20T23:39:13.986Z,15.50
2022-09-20T23:41:45.926Z,15.40
2022-09-20T23:44:17.249Z,15.40
2022-09-20T23:46:45.123Z,15.40
2022-09-20T23:49:14.200Z,15.40
2022-09-20T23:51:42.337Z,15.40
2022-09-20T23:54:10.180Z,15.30
2022-09-20T23:56:38.997Z,15.40
2022-09-20T23:59:07.303Z,15.30
